sensor_id;sensor_type;location;lat;lon;timestamp;P1;durP1;ratioP1;P2;durP2;ratioP2
14665;SDS011;7420;53.574;10.040;2022-07-21T00:00:47;15.30;;;12.02;;
14665;SDS011;7420;53.574;10.040;2022-07-21T00:03:13;14.68;;;11.75;;
14665;SDS011;7420;53.574;10.040;2022-07-21T00:05:38;17.35;;;12.45;;
14665;SDS011;7420;53.574;10.040;2022-07-21T00:08:04;17.27;;;11.30;;
14665;SDS011;7420;53.574;10.040;2022-07-21T00:10:29;16.70;;;12.40;;
14665;SDS011;7420;53.574;10.040;2022-07-21T00:12:55;15.50;;;11.57;;
14665;SDS011;7420;53.574;10.040;2022-07-21T00:15:21;15.48;;;11.88;;
14665;SDS011;7420;53.574;10.040;2022-07-21T00:17:50;17.70;;;12.88;;
14665;SDS011;7420;53.574;10.040;2022-07-21T00:20:16;16.67;;;11.93;;
14665;SDS011;7420;53.574;10.040;2022-07-21T00:22:42;15.70;;;11.38;;
14665;SDS011;7420;53.574;10.040;2022-07-21T00:25:08;13.38;;;10.63;;
14665;SDS011;7420;53.574;10.040;2022-07-21T00:27:35;15.48;;;11.82;;
14665;SDS011;7420;53.574;10.040;2022-07-21T00:30:00;15.68;;;12.63;;
14665;SDS011;7420;53.574;10.040;2022-07-21T00:32:26;16.88;;;13.02;;
14665;SDS011;7420;53.574;10.040;2022-07-21T00:34:52;18.45;;;13.07;;
14665;SDS011;7420;53.574;10.040;2022-07-21T00:37:17;18.75;;;12.95;;
14665;SDS011;7420;53.574;10.040;2022-07-21T00:39:43;17.58;;;12.50;;
14665;SDS011;7420;53.574;10.040;2022-07-21T00:42:08;20.45;;;13.52;;
14665;SDS011;7420;53.574;10.040;2022-07-21T00:44:45;17.98;;;12.05;;
14665;SDS011;7420;53.574;10.040;2022-07-21T00:47:10;18.42;;;12.73;;
14665;SDS011;7420;53.574;10.040;2022-07-21T00:49:35;16.88;;;13.00;;
14665;SDS011;7420;53.574;10.040;2022-07-21T00:52:01;14.63;;;12.30;;
14665;SDS011;7420;53.574;10.040;2022-07-21T00:54:26;18.02;;;13.00;;
14665;SDS011;7420;53.574;10.040;2022-07-21T00:56:52;18.73;;;12.75;;
14665;SDS011;7420;53.574;10.040;2022-07-21T00:59:17;16.50;;;12.35;;
14665;SDS011;7420;53.574;10.040;2022-07-21T01:01:42;20.25;;;13.40;;
14665;SDS011;7420;53.574;10.040;2022-07-21T01:04:08;18.98;;;13.05;;
14665;SDS011;7420;53.574;10.040;2022-07-21T01:06:33;16.42;;;12.43;;
14665;SDS011;7420;53.574;10.040;2022-07-21T01:08:59;17.50;;;12.23;;
14665;SDS011;7420;53.574;10.040;2022-07-21T01:11:24;21.30;;;13.70;;
14665;SDS011;7420;53.574;10.040;2022-07-21T01:13:50;21.02;;;14.57;;
14665;SDS011;7420;53.574;10.040;2022-07-21T01:16:16;15.57;;;13.15;;
14665;SDS011;7420;53.574;10.040;2022-07-21T01:18:42;17.30;;;12.75;;
14665;SDS011;7420;53.574;10.040;2022-07-21T01:23:59;13.90;;;11.32;;
14665;SDS011;7420;53.574;10.040;2022-07-21T01:26:26;16.73;;;12.07;;
14665;SDS011;7420;53.574;10.040;2022-07-21T01:28:52;15.00;;;12.45;;
14665;SDS011;7420;53.574;10.040;2022-07-21T01:31:17;20.02;;;12.45;;
14665;SDS011;7420;53.574;10.040;2022-07-21T01:33:43;18.38;;;14.05;;
14665;SDS011;7420;53.574;10.040;2022-07-21T01:36:08;17.05;;;12.43;;
14665;SDS011;7420;53.574;10.040;2022-07-21T01:38:34;18.58;;;13.45;;
14665;SDS011;7420;53.574;10.040;2022-07-21T01:41:17;20.95;;;14.63;;
14665;SDS011;7420;53.574;10.040;2022-07-21T01:43:59;20.30;;;12.73;;
14665;SDS011;7420;53.574;10.040;2022-07-21T01:46:35;22.50;;;13.80;;
14665;SDS011;7420;53.574;10.040;2022-07-21T01:49:03;17.90;;;12.38;;
14665;SDS011;7420;53.574;10.040;2022-07-21T01:51:29;19.38;;;13.85;;
14665;SDS011;7420;53.574;10.040;2022-07-21T01:53:55;16.55;;;11.43;;
14665;SDS011;7420;53.574;10.040;2022-07-21T01:56:21;23.55;;;12.93;;
14665;SDS011;7420;53.574;10.040;2022-07-21T01:58:48;19.45;;;13.35;;
14665;SDS011;7420;53.574;10.040;2022-07-21T02:01:15;18.95;;;13.38;;
14665;SDS011;7420;53.574;10.040;2022-07-21T02:03:42;19.48;;;12.95;;
14665;SDS011;7420;53.574;10.040;2022-07-21T02:06:08;18.30;;;11.57;;
14665;SDS011;7420;53.574;10.040;2022-07-21T02:08:34;16.58;;;12.60;;
14665;SDS011;7420;53.574;10.040;2022-07-21T02:11:00;16.90;;;13.00;;
14665;SDS011;7420;53.574;10.040;2022-07-21T02:13:25;16.38;;;12.23;;
14665;SDS011;7420;53.574;10.040;2022-07-21T02:15:51;16.35;;;11.82;;
14665;SDS011;7420;53.574;10.040;2022-07-21T02:18:17;23.88;;;12.98;;
14665;SDS011;7420;53.574;10.040;2022-07-21T02:20:43;19.10;;;12.43;;
14665;SDS011;7420;53.574;10.040;2022-07-21T02:23:10;21.20;;;13.32;;
14665;SDS011;7420;53.574;10.040;2022-07-21T02:25:36;17.90;;;13.00;;
14665;SDS011;7420;53.574;10.040;2022-07-21T02:28:02;27.00;;;13.73;;
14665;SDS011;7420;53.574;10.040;2022-07-21T02:30:28;23.83;;;14.13;;
14665;SDS011;7420;53.574;10.040;2022-07-21T02:32:53;17.13;;;12.73;;
14665;SDS011;7420;53.574;10.040;2022-07-21T02:35:19;20.35;;;13.27;;
14665;SDS011;7420;53.574;10.040;2022-07-21T02:37:44;29.98;;;12.80;;
14665;SDS011;7420;53.574;10.040;2022-07-21T02:40:10;21.17;;;14.07;;
14665;SDS011;7420;53.574;10.040;2022-07-21T02:42:35;25.73;;;14.50;;
14665;SDS011;7420;53.574;10.040;2022-07-21T02:45:03;23.98;;;14.38;;
14665;SDS011;7420;53.574;10.040;2022-07-21T02:47:29;22.83;;;15.02;;
14665;SDS011;7420;53.574;10.040;2022-07-21T02:49:55;23.95;;;15.05;;
14665;SDS011;7420;53.574;10.040;2022-07-21T02:52:20;25.70;;;17.33;;
14665;SDS011;7420;53.574;10.040;2022-07-21T02:54:46;23.83;;;16.45;;
14665;SDS011;7420;53.574;10.040;2022-07-21T02:57:11;24.02;;;15.80;;
14665;SDS011;7420;53.574;10.040;2022-07-21T02:59:36;24.85;;;17.67;;
14665;SDS011;7420;53.574;10.040;2022-07-21T03:02:01;30.73;;;18.60;;
14665;SDS011;7420;53.574;10.040;2022-07-21T03:04:27;25.38;;;17.35;;
14665;SDS011;7420;53.574;10.040;2022-07-21T03:06:52;26.65;;;17.55;;
14665;SDS011;7420;53.574;10.040;2022-07-21T03:09:17;26.73;;;18.27;;
14665;SDS011;7420;53.574;10.040;2022-07-21T03:11:43;27.95;;;16.52;;
14665;SDS011;7420;53.574;10.040;2022-07-21T03:14:08;24.27;;;16.70;;
14665;SDS011;7420;53.574;10.040;2022-07-21T03:16:33;23.80;;;15.10;;
14665;SDS011;7420;53.574;10.040;2022-07-21T03:18:59;21.38;;;14.07;;
14665;SDS011;7420;53.574;10.040;2022-07-21T03:21:24;23.23;;;13.32;;
14665;SDS011;7420;53.574;10.040;2022-07-21T03:23:50;22.63;;;13.38;;
14665;SDS011;7420;53.574;10.040;2022-07-21T03:26:15;20.73;;;14.07;;
14665;SDS011;7420;53.574;10.040;2022-07-21T03:28:41;21.10;;;13.52;;
14665;SDS011;7420;53.574;10.040;2022-07-21T03:31:07;22.75;;;12.38;;
14665;SDS011;7420;53.574;10.040;2022-07-21T03:33:33;16.92;;;11.80;;
14665;SDS011;7420;53.574;10.040;2022-07-21T03:35:59;20.65;;;11.90;;
14665;SDS011;7420;53.574;10.040;2022-07-21T03:38:24;24.50;;;13.20;;
14665;SDS011;7420;53.574;10.040;2022-07-21T03:40:50;17.42;;;11.27;;
14665;SDS011;7420;53.574;10.040;2022-07-21T03:43:16;17.00;;;12.20;;
14665;SDS011;7420;53.574;10.040;2022-07-21T03:45:42;19.05;;;11.93;;
14665;SDS011;7420;53.574;10.040;2022-07-21T03:48:07;18.08;;;10.35;;
14665;SDS011;7420;53.574;10.040;2022-07-21T03:50:34;20.65;;;10.68;;
14665;SDS011;7420;53.574;10.040;2022-07-21T03:53:01;14.25;;;9.70;;
14665;SDS011;7420;53.574;10.040;2022-07-21T03:55:27;20.77;;;9.80;;
14665;SDS011;7420;53.574;10.040;2022-07-21T03:57:54;20.90;;;9.95;;
14665;SDS011;7420;53.574;10.040;2022-07-21T04:02:48;18.60;;;8.27;;
14665;SDS011;7420;53.574;10.040;2022-07-21T04:05:15;21.75;;;9.43;;
14665;SDS011;7420;53.574;10.040;2022-07-21T04:07:42;15.07;;;9.35;;
14665;SDS011;7420;53.574;10.040;2022-07-21T04:10:09;21.02;;;8.57;;
14665;SDS011;7420;53.574;10.040;2022-07-21T04:12:38;15.38;;;9.10;;
14665;SDS011;7420;53.574;10.040;2022-07-21T04:15:04;15.25;;;9.15;;
14665;SDS011;7420;53.574;10.040;2022-07-21T04:17:31;13.18;;;8.23;;
14665;SDS011;7420;53.574;10.040;2022-07-21T04:19:56;12.85;;;7.28;;
14665;SDS011;7420;53.574;10.040;2022-07-21T04:22:22;15.43;;;7.90;;
14665;SDS011;7420;53.574;10.040;2022-07-21T04:24:47;16.02;;;8.68;;
14665;SDS011;7420;53.574;10.040;2022-07-21T04:27:13;15.70;;;6.75;;
14665;SDS011;7420;53.574;10.040;2022-07-21T04:29:38;15.93;;;8.60;;
14665;SDS011;7420;53.574;10.040;2022-07-21T04:32:03;16.90;;;8.18;;
14665;SDS011;7420;53.574;10.040;2022-07-21T04:34:29;19.83;;;8.80;;
14665;SDS011;7420;53.574;10.040;2022-07-21T04:36:55;18.13;;;8.10;;
14665;SDS011;7420;53.574;10.040;2022-07-21T04:39:20;12.00;;;6.75;;
14665;SDS011;7420;53.574;10.040;2022-07-21T04:41:45;13.75;;;7.30;;
14665;SDS011;7420;53.574;10.040;2022-07-21T04:44:11;13.27;;;6.85;;
14665;SDS011;7420;53.574;10.040;2022-07-21T04:46:37;16.98;;;8.10;;
14665;SDS011;7420;53.574;10.040;2022-07-21T04:49:02;16.10;;;7.30;;
14665;SDS011;7420;53.574;10.040;2022-07-21T04:51:27;17.20;;;7.25;;
14665;SDS011;7420;53.574;10.040;2022-07-21T04:53:53;14.43;;;7.63;;
14665;SDS011;7420;53.574;10.040;2022-07-21T04:56:18;16.83;;;8.20;;
14665;SDS011;7420;53.574;10.040;2022-07-21T04:58:44;13.30;;;7.18;;
14665;SDS011;7420;53.574;10.040;2022-07-21T05:01:09;15.57;;;7.22;;
14665;SDS011;7420;53.574;10.040;2022-07-21T05:03:35;14.20;;;7.13;;
14665;SDS011;7420;53.574;10.040;2022-07-21T05:06:00;15.27;;;7.35;;
14665;SDS011;7420;53.574;10.040;2022-07-21T05:08:25;12.25;;;6.75;;
14665;SDS011;7420;53.574;10.040;2022-07-21T05:10:52;11.35;;;6.40;;
14665;SDS011;7420;53.574;10.040;2022-07-21T05:13:17;15.35;;;6.32;;
14665;SDS011;7420;53.574;10.040;2022-07-21T05:15:43;13.68;;;7.00;;
14665;SDS011;7420;53.574;10.040;2022-07-21T05:18:08;14.27;;;6.93;;
14665;SDS011;7420;53.574;10.040;2022-07-21T05:20:34;12.00;;;6.45;;
14665;SDS011;7420;53.574;10.040;2022-07-21T05:22:59;11.65;;;6.70;;
14665;SDS011;7420;53.574;10.040;2022-07-21T05:25:26;12.70;;;6.60;;
14665;SDS011;7420;53.574;10.040;2022-07-21T05:27:53;14.98;;;7.47;;
14665;SDS011;7420;53.574;10.040;2022-07-21T05:30:19;17.45;;;6.95;;
14665;SDS011;7420;53.574;10.040;2022-07-21T05:32:44;16.33;;;6.68;;
14665;SDS011;7420;53.574;10.040;2022-07-21T05:35:10;11.00;;;6.70;;
14665;SDS011;7420;53.574;10.040;2022-07-21T05:37:39;11.20;;;6.22;;
14665;SDS011;7420;53.574;10.040;2022-07-21T05:40:09;12.07;;;5.95;;
14665;SDS011;7420;53.574;10.040;2022-07-21T05:42:35;14.32;;;6.60;;
14665;SDS011;7420;53.574;10.040;2022-07-21T05:45:01;10.82;;;6.35;;
14665;SDS011;7420;53.574;10.040;2022-07-21T05:47:26;11.15;;;6.35;;
14665;SDS011;7420;53.574;10.040;2022-07-21T05:49:52;14.02;;;6.55;;
14665;SDS011;7420;53.574;10.040;2022-07-21T05:52:17;12.88;;;6.38;;
14665;SDS011;7420;53.574;10.040;2022-07-21T05:54:43;11.85;;;6.03;;
14665;SDS011;7420;53.574;10.040;2022-07-21T05:57:08;13.23;;;6.93;;
14665;SDS011;7420;53.574;10.040;2022-07-21T05:59:33;12.82;;;6.60;;
14665;SDS011;7420;53.574;10.040;2022-07-21T06:01:59;11.88;;;6.53;;
14665;SDS011;7420;53.574;10.040;2022-07-21T06:04:24;18.02;;;7.18;;
14665;SDS011;7420;53.574;10.040;2022-07-21T06:06:50;11.63;;;6.45;;
14665;SDS011;7420;53.574;10.040;2022-07-21T06:09:17;15.10;;;7.32;;
14665;SDS011;7420;53.574;10.040;2022-07-21T06:11:42;20.50;;;7.45;;
14665;SDS011;7420;53.574;10.040;2022-07-21T06:14:08;13.48;;;6.50;;
14665;SDS011;7420;53.574;10.040;2022-07-21T06:16:33;13.02;;;6.75;;
14665;SDS011;7420;53.574;10.040;2022-07-21T06:18:59;11.63;;;6.20;;
14665;SDS011;7420;53.574;10.040;2022-07-21T06:21:26;19.33;;;7.18;;
14665;SDS011;7420;53.574;10.040;2022-07-21T06:23:51;12.02;;;6.30;;
14665;SDS011;7420;53.574;10.040;2022-07-21T06:26:17;14.25;;;7.25;;
14665;SDS011;7420;53.574;10.040;2022-07-21T06:28:43;12.52;;;8.35;;
14665;SDS011;7420;53.574;10.040;2022-07-21T06:31:08;15.48;;;7.55;;
14665;SDS011;7420;53.574;10.040;2022-07-21T06:33:35;13.18;;;7.90;;
14665;SDS011;7420;53.574;10.040;2022-07-21T06:36:01;10.65;;;6.93;;
14665;SDS011;7420;53.574;10.040;2022-07-21T06:38:26;11.63;;;7.18;;
14665;SDS011;7420;53.574;10.040;2022-07-21T06:40:52;13.40;;;8.32;;
14665;SDS011;7420;53.574;10.040;2022-07-21T06:43:18;15.48;;;8.80;;
14665;SDS011;7420;53.574;10.040;2022-07-21T06:45:44;15.82;;;9.23;;
14665;SDS011;7420;53.574;10.040;2022-07-21T06:48:09;17.63;;;9.55;;
14665;SDS011;7420;53.574;10.040;2022-07-21T06:50:35;17.23;;;9.02;;
14665;SDS011;7420;53.574;10.040;2022-07-21T06:53:01;18.27;;;8.73;;
14665;SDS011;7420;53.574;10.040;2022-07-21T06:55:28;14.68;;;8.73;;
14665;SDS011;7420;53.574;10.040;2022-07-21T06:57:53;19.02;;;8.60;;
14665;SDS011;7420;53.574;10.040;2022-07-21T07:00:19;15.25;;;9.05;;
14665;SDS011;7420;53.574;10.040;2022-07-21T07:02:45;19.20;;;9.50;;
14665;SDS011;7420;53.574;10.040;2022-07-21T07:05:11;14.90;;;9.35;;
14665;SDS011;7420;53.574;10.040;2022-07-21T07:07:36;17.40;;;9.40;;
14665;SDS011;7420;53.574;10.040;2022-07-21T07:10:02;21.33;;;9.77;;
14665;SDS011;7420;53.574;10.040;2022-07-21T07:12:28;15.73;;;9.75;;
14665;SDS011;7420;53.574;10.040;2022-07-21T07:14:53;13.57;;;9.52;;
14665;SDS011;7420;53.574;10.040;2022-07-21T07:17:19;17.70;;;9.88;;
14665;SDS011;7420;53.574;10.040;2022-07-21T07:19:45;15.60;;;9.90;;
14665;SDS011;7420;53.574;10.040;2022-07-21T07:22:11;14.07;;;8.85;;
14665;SDS011;7420;53.574;10.040;2022-07-21T07:24:36;22.88;;;8.75;;
14665;SDS011;7420;53.574;10.040;2022-07-21T07:27:02;15.38;;;9.73;;
14665;SDS011;7420;53.574;10.040;2022-07-21T07:29:27;13.73;;;9.00;;
14665;SDS011;7420;53.574;10.040;2022-07-21T07:31:53;16.05;;;9.95;;
14665;SDS011;7420;53.574;10.040;2022-07-21T07:34:20;17.30;;;10.00;;
14665;SDS011;7420;53.574;10.040;2022-07-21T07:36:45;16.85;;;9.75;;
14665;SDS011;7420;53.574;10.040;2022-07-21T07:39:11;16.35;;;10.43;;
14665;SDS011;7420;53.574;10.040;2022-07-21T07:41:36;17.38;;;10.27;;
14665;SDS011;7420;53.574;10.040;2022-07-21T07:44:02;20.45;;;11.05;;
14665;SDS011;7420;53.574;10.040;2022-07-21T07:46:28;16.75;;;10.32;;
14665;SDS011;7420;53.574;10.040;2022-07-21T07:48:53;25.13;;;10.15;;
14665;SDS011;7420;53.574;10.040;2022-07-21T07:51:19;16.90;;;9.98;;
14665;SDS011;7420;53.574;10.040;2022-07-21T07:53:44;18.00;;;10.88;;
14665;SDS011;7420;53.574;10.040;2022-07-21T07:56:09;21.27;;;12.10;;
14665;SDS011;7420;53.574;10.040;2022-07-21T07:58:35;23.42;;;11.88;;
14665;SDS011;7420;53.574;10.040;2022-07-21T08:01:00;20.60;;;10.82;;
14665;SDS011;7420;53.574;10.040;2022-07-21T08:03:26;27.67;;;13.52;;
14665;SDS011;7420;53.574;10.040;2022-07-21T08:05:56;22.52;;;13.98;;
14665;SDS011;7420;53.574;10.040;2022-07-21T08:08:24;25.50;;;14.65;;
14665;SDS011;7420;53.574;10.040;2022-07-21T08:10:50;19.65;;;12.70;;
14665;SDS011;7420;53.574;10.040;2022-07-21T08:13:16;28.50;;;17.42;;
14665;SDS011;7420;53.574;10.040;2022-07-21T08:15:43;26.17;;;16.58;;
14665;SDS011;7420;53.574;10.040;2022-07-21T08:18:09;26.52;;;16.23;;
14665;SDS011;7420;53.574;10.040;2022-07-21T08:20:35;22.17;;;15.40;;
14665;SDS011;7420;53.574;10.040;2022-07-21T08:23:02;29.48;;;18.92;;
14665;SDS011;7420;53.574;10.040;2022-07-21T08:25:28;27.80;;;18.48;;
14665;SDS011;7420;53.574;10.040;2022-07-21T08:27:53;25.10;;;16.55;;
14665;SDS011;7420;53.574;10.040;2022-07-21T08:30:19;28.92;;;18.05;;
14665;SDS011;7420;53.574;10.040;2022-07-21T08:32:44;22.05;;;15.75;;
14665;SDS011;7420;53.574;10.040;2022-07-21T08:35:10;31.02;;;19.27;;
14665;SDS011;7420;53.574;10.040;2022-07-21T08:37:36;26.40;;;19.17;;
14665;SDS011;7420;53.574;10.040;2022-07-21T08:40:05;26.33;;;20.08;;
14665;SDS011;7420;53.574;10.040;2022-07-21T08:42:32;26.23;;;17.27;;
14665;SDS011;7420;53.574;10.040;2022-07-21T08:44:57;27.80;;;24.98;;
14665;SDS011;7420;53.574;10.040;2022-07-21T08:47:24;32.38;;;20.70;;
14665;SDS011;7420;53.574;10.040;2022-07-21T08:49:50;28.15;;;19.80;;
14665;SDS011;7420;53.574;10.040;2022-07-21T08:52:16;28.35;;;19.85;;
14665;SDS011;7420;53.574;10.040;2022-07-21T08:54:43;33.78;;;22.05;;
14665;SDS011;7420;53.574;10.040;2022-07-21T08:57:08;29.90;;;22.27;;
14665;SDS011;7420;53.574;10.040;2022-07-21T08:59:34;37.40;;;22.08;;
14665;SDS011;7420;53.574;10.040;2022-07-21T09:01:59;28.85;;;21.42;;
14665;SDS011;7420;53.574;10.040;2022-07-21T09:04:28;34.67;;;21.08;;
14665;SDS011;7420;53.574;10.040;2022-07-21T09:07:00;27.70;;;18.27;;
14665;SDS011;7420;53.574;10.040;2022-07-21T09:09:28;29.15;;;20.85;;
14665;SDS011;7420;53.574;10.040;2022-07-21T09:11:55;32.20;;;22.42;;
14665;SDS011;7420;53.574;10.040;2022-07-21T09:14:22;33.25;;;21.13;;
14665;SDS011;7420;53.574;10.040;2022-07-21T09:16:57;28.35;;;21.15;;
14665;SDS011;7420;53.574;10.040;2022-07-21T09:19:26;25.85;;;20.00;;
14665;SDS011;7420;53.574;10.040;2022-07-21T09:21:54;30.80;;;29.38;;
14665;SDS011;7420;53.574;10.040;2022-07-21T09:26:57;23.92;;;13.55;;
14665;SDS011;7420;53.574;10.040;2022-07-21T09:29:26;24.38;;;17.90;;
14665;SDS011;7420;53.574;10.040;2022-07-21T09:31:57;23.85;;;18.55;;
14665;SDS011;7420;53.574;10.040;2022-07-21T09:34:36;23.65;;;19.63;;
14665;SDS011;7420;53.574;10.040;2022-07-21T09:37:01;23.58;;;20.15;;
14665;SDS011;7420;53.574;10.040;2022-07-21T09:39:40;23.23;;;18.45;;
14665;SDS011;7420;53.574;10.040;2022-07-21T09:42:21;28.42;;;20.35;;
14665;SDS011;7420;53.574;10.040;2022-07-21T09:44:52;23.85;;;17.92;;
14665;SDS011;7420;53.574;10.040;2022-07-21T09:47:21;26.48;;;18.48;;
14665;SDS011;7420;53.574;10.040;2022-07-21T09:49:47;25.27;;;18.92;;
14665;SDS011;7420;53.574;10.040;2022-07-21T09:52:20;24.65;;;18.75;;
14665;SDS011;7420;53.574;10.040;2022-07-21T09:54:49;22.85;;;17.05;;
14665;SDS011;7420;53.574;10.040;2022-07-21T09:57:16;22.42;;;17.05;;
14665;SDS011;7420;53.574;10.040;2022-07-21T09:59:43;21.70;;;15.52;;
14665;SDS011;7420;53.574;10.040;2022-07-21T10:02:11;24.40;;;17.67;;
14665;SDS011;7420;53.574;10.040;2022-07-21T10:04:41;23.83;;;15.07;;
14665;SDS011;7420;53.574;10.040;2022-07-21T10:07:07;22.02;;;18.17;;
14665;SDS011;7420;53.574;10.040;2022-07-21T10:09:33;18.73;;;15.18;;
14665;SDS011;7420;53.574;10.040;2022-07-21T10:11:59;19.85;;;15.50;;
14665;SDS011;7420;53.574;10.040;2022-07-21T10:14:25;18.55;;;14.60;;
14665;SDS011;7420;53.574;10.040;2022-07-21T10:16:52;16.85;;;13.88;;
14665;SDS011;7420;53.574;10.040;2022-07-21T10:22:01;20.70;;;15.23;;
14665;SDS011;7420;53.574;10.040;2022-07-21T10:24:33;18.75;;;15.85;;
14665;SDS011;7420;53.574;10.040;2022-07-21T10:27:05;21.20;;;14.95;;
14665;SDS011;7420;53.574;10.040;2022-07-21T10:32:19;16.50;;;12.48;;
14665;SDS011;7420;53.574;10.040;2022-07-21T10:34:47;21.70;;;15.73;;
14665;SDS011;7420;53.574;10.040;2022-07-21T10:40:03;16.67;;;12.27;;
14665;SDS011;7420;53.574;10.040;2022-07-21T10:42:30;20.00;;;13.07;;
14665;SDS011;7420;53.574;10.040;2022-07-21T10:44:55;17.67;;;13.13;;
14665;SDS011;7420;53.574;10.040;2022-07-21T10:47:21;20.08;;;13.32;;
14665;SDS011;7420;53.574;10.040;2022-07-21T10:49:51;17.35;;;13.38;;
14665;SDS011;7420;53.574;10.040;2022-07-21T10:55:19;17.45;;;12.35;;
14665;SDS011;7420;53.574;10.040;2022-07-21T11:00:35;16.90;;;11.40;;
14665;SDS011;7420;53.574;10.040;2022-07-21T11:03:12;18.30;;;14.23;;
14665;SDS011;7420;53.574;10.040;2022-07-21T11:06:09;13.55;;;10.68;;
14665;SDS011;7420;53.574;10.040;2022-07-21T11:08:31;16.77;;;13.02;;
14665;SDS011;7420;53.574;10.040;2022-07-21T11:11:06;16.08;;;13.70;;
14665;SDS011;7420;53.574;10.040;2022-07-21T11:22:09;13.70;;;9.93;;
14665;SDS011;7420;53.574;10.040;2022-07-21T11:24:59;12.82;;;9.45;;
14665;SDS011;7420;53.574;10.040;2022-07-21T11:27:28;10.98;;;9.63;;
14665;SDS011;7420;53.574;10.040;2022-07-21T11:29:56;10.75;;;9.15;;
14665;SDS011;7420;53.574;10.040;2022-07-21T11:32:23;11.52;;;9.35;;
14665;SDS011;7420;53.574;10.040;2022-07-21T11:34:53;10.90;;;9.82;;
14665;SDS011;7420;53.574;10.040;2022-07-21T11:37:38;12.15;;;10.50;;
14665;SDS011;7420;53.574;10.040;2022-07-21T11:40:05;12.85;;;11.00;;
14665;SDS011;7420;53.574;10.040;2022-07-21T11:42:33;12.15;;;9.82;;
14665;SDS011;7420;53.574;10.040;2022-07-21T11:44:58;13.68;;;10.23;;
14665;SDS011;7420;53.574;10.040;2022-07-21T11:47:24;11.10;;;9.63;;
14665;SDS011;7420;53.574;10.040;2022-07-21T11:49:51;11.77;;;9.40;;
14665;SDS011;7420;53.574;10.040;2022-07-21T11:52:19;10.43;;;9.13;;
14665;SDS011;7420;53.574;10.040;2022-07-21T11:54:51;11.40;;;8.27;;
14665;SDS011;7420;53.574;10.040;2022-07-21T11:57:18;11.30;;;8.45;;
14665;SDS011;7420;53.574;10.040;2022-07-21T11:59:44;9.95;;;8.95;;
14665;SDS011;7420;53.574;10.040;2022-07-21T12:02:14;8.27;;;6.82;;
14665;SDS011;7420;53.574;10.040;2022-07-21T12:07:15;11.07;;;8.77;;
14665;SDS011;7420;53.574;10.040;2022-07-21T12:09:41;7.47;;;6.07;;
14665;SDS011;7420;53.574;10.040;2022-07-21T12:12:08;11.50;;;8.60;;
14665;SDS011;7420;53.574;10.040;2022-07-21T12:14:49;9.00;;;7.65;;
14665;SDS011;7420;53.574;10.040;2022-07-21T12:17:31;9.63;;;7.38;;
14665;SDS011;7420;53.574;10.040;2022-07-21T12:20:05;7.45;;;6.30;;
14665;SDS011;7420;53.574;10.040;2022-07-21T12:22:35;7.45;;;6.55;;
14665;SDS011;7420;53.574;10.040;2022-07-21T12:25:03;8.18;;;6.65;;
14665;SDS011;7420;53.574;10.040;2022-07-21T12:27:33;6.95;;;6.25;;
14665;SDS011;7420;53.574;10.040;2022-07-21T12:29:59;7.32;;;6.20;;
14665;SDS011;7420;53.574;10.040;2022-07-21T12:32:38;8.27;;;6.10;;
14665;SDS011;7420;53.574;10.040;2022-07-21T12:35:03;10.13;;;6.68;;
14665;SDS011;7420;53.574;10.040;2022-07-21T12:40:13;12.15;;;7.88;;
14665;SDS011;7420;53.574;10.040;2022-07-21T12:42:38;9.43;;;6.75;;
14665;SDS011;7420;53.574;10.040;2022-07-21T12:45:14;7.88;;;6.90;;
14665;SDS011;7420;53.574;10.040;2022-07-21T12:47:41;9.70;;;7.28;;
14665;SDS011;7420;53.574;10.040;2022-07-21T12:50:07;8.15;;;7.35;;
14665;SDS011;7420;53.574;10.040;2022-07-21T12:52:38;7.45;;;6.25;;
14665;SDS011;7420;53.574;10.040;2022-07-21T12:55:04;9.15;;;7.70;;
14665;SDS011;7420;53.574;10.040;2022-07-21T12:57:31;7.97;;;6.90;;
14665;SDS011;7420;53.574;10.040;2022-07-21T12:59:57;8.52;;;7.00;;
14665;SDS011;7420;53.574;10.040;2022-07-21T13:02:23;7.53;;;6.50;;
14665;SDS011;7420;53.574;10.040;2022-07-21T13:04:50;8.02;;;6.55;;
14665;SDS011;7420;53.574;10.040;2022-07-21T13:07:15;6.90;;;5.60;;
14665;SDS011;7420;53.574;10.040;2022-07-21T13:09:41;6.53;;;5.78;;
14665;SDS011;7420;53.574;10.040;2022-07-21T13:12:06;6.60;;;5.88;;
14665;SDS011;7420;53.574;10.040;2022-07-21T13:14:32;8.23;;;6.28;;
14665;SDS011;7420;53.574;10.040;2022-07-21T13:16:59;8.30;;;7.30;;
14665;SDS011;7420;53.574;10.040;2022-07-21T13:19:25;9.27;;;6.88;;
14665;SDS011;7420;53.574;10.040;2022-07-21T13:21:50;10.55;;;6.93;;
14665;SDS011;7420;53.574;10.040;2022-07-21T13:24:16;8.15;;;7.35;;
14665;SDS011;7420;53.574;10.040;2022-07-21T13:26:41;8.80;;;6.13;;
14665;SDS011;7420;53.574;10.040;2022-07-21T13:29:07;10.25;;;6.90;;
14665;SDS011;7420;53.574;10.040;2022-07-21T13:31:33;8.27;;;7.10;;
14665;SDS011;7420;53.574;10.040;2022-07-21T13:34:05;8.80;;;6.60;;
14665;SDS011;7420;53.574;10.040;2022-07-21T13:36:34;8.73;;;7.30;;
14665;SDS011;7420;53.574;10.040;2022-07-21T13:39:01;8.15;;;7.35;;
14665;SDS011;7420;53.574;10.040;2022-07-21T13:41:28;8.77;;;6.82;;
14665;SDS011;7420;53.574;10.040;2022-07-21T13:43:55;9.55;;;6.93;;
14665;SDS011;7420;53.574;10.040;2022-07-21T13:46:20;6.13;;;5.50;;
14665;SDS011;7420;53.574;10.040;2022-07-21T13:48:46;7.53;;;5.78;;
14665;SDS011;7420;53.574;10.040;2022-07-21T13:51:12;6.90;;;5.60;;
14665;SDS011;7420;53.574;10.040;2022-07-21T13:53:39;8.73;;;6.03;;
14665;SDS011;7420;53.574;10.040;2022-07-21T13:56:06;6.53;;;4.93;;
14665;SDS011;7420;53.574;10.040;2022-07-21T13:58:31;4.82;;;4.32;;
14665;SDS011;7420;53.574;10.040;2022-07-21T14:00:57;4.95;;;4.43;;
14665;SDS011;7420;53.574;10.040;2022-07-21T14:03:23;4.35;;;3.95;;
14665;SDS011;7420;53.574;10.040;2022-07-21T14:05:49;5.57;;;3.92;;
14665;SDS011;7420;53.574;10.040;2022-07-21T14:08:14;4.10;;;3.55;;
14665;SDS011;7420;53.574;10.040;2022-07-21T14:10:40;5.13;;;3.83;;
14665;SDS011;7420;53.574;10.040;2022-07-21T14:13:05;3.58;;;3.28;;
14665;SDS011;7420;53.574;10.040;2022-07-21T14:15:31;5.28;;;3.90;;
14665;SDS011;7420;53.574;10.040;2022-07-21T14:17:56;4.05;;;3.22;;
14665;SDS011;7420;53.574;10.040;2022-07-21T14:20:21;4.40;;;3.33;;
14665;SDS011;7420;53.574;10.040;2022-07-21T14:22:47;5.05;;;3.10;;
14665;SDS011;7420;53.574;10.040;2022-07-21T14:25:12;4.00;;;3.40;;
14665;SDS011;7420;53.574;10.040;2022-07-21T14:27:44;3.60;;;3.03;;
14665;SDS011;7420;53.574;10.040;2022-07-21T14:30:13;3.47;;;3.17;;
14665;SDS011;7420;53.574;10.040;2022-07-21T14:32:39;4.03;;;3.25;;
14665;SDS011;7420;53.574;10.040;2022-07-21T14:35:04;3.30;;;3.00;;
14665;SDS011;7420;53.574;10.040;2022-07-21T14:37:30;5.25;;;3.53;;
14665;SDS011;7420;53.574;10.040;2022-07-21T14:39:56;3.72;;;3.13;;
14665;SDS011;7420;53.574;10.040;2022-07-21T14:42:21;3.67;;;3.20;;
14665;SDS011;7420;53.574;10.040;2022-07-21T14:44:49;3.85;;;3.45;;
14665;SDS011;7420;53.574;10.040;2022-07-21T14:47:14;4.63;;;3.63;;
14665;SDS011;7420;53.574;10.040;2022-07-21T14:49:40;3.35;;;3.05;;
14665;SDS011;7420;53.574;10.040;2022-07-21T14:52:06;4.75;;;3.67;;
14665;SDS011;7420;53.574;10.040;2022-07-21T14:54:32;7.45;;;3.88;;
14665;SDS011;7420;53.574;10.040;2022-07-21T14:56:57;4.50;;;4.10;;
14665;SDS011;7420;53.574;10.040;2022-07-21T14:59:23;6.30;;;3.70;;
14665;SDS011;7420;53.574;10.040;2022-07-21T15:01:48;4.47;;;3.53;;
14665;SDS011;7420;53.574;10.040;2022-07-21T15:04:13;5.43;;;4.32;;